Time;durP1;ratioP1;P1;durP2;ratioP2;P2;SDS_P1;SDS_P2;PMS_P1;PMS_P2;Temp;Humidity;BMP_temperature;BMP_pressure;BME280_temperature;BME280_humidity;BME280_pressure;Samples;Min_cycle;Max_cycle;Signal;HPM_P1;HPM_P2
2022/05/04 00:01:35;;;;;;;10.37;9.20;;;12.40;99.90;;;;;;5020147;28;20480;-76
2022/05/04 00:04:02;;;;;;;16.83;9.20;;;12.40;99.90;;;;;;5032944;28;20461;-76
2022/05/04 00:06:28;;;;;;;12.67;8.87;;;12.30;99.90;;;;;;5016137;28;20946;-76
2022/05/04 00:08:55;;;;;;;15.63;8.20;;;12.30;99.90;;;;;;5022028;28;20501;-76
2022/05/04 00:11:22;;;;;;;15.07;9.40;;;12.20;99.90;;;;;;5012701;28;20540;-76
2022/05/04 00:13:50;;;;;;;16.53;9.77;;;12.20;99.90;;;;;;5017522;28;20450;-76
2022/05/04 00:16:17;;;;;;;15.53;10.00;;;12.20;99.90;;;;;;5019652;28;20450;-76
2022/05/04 00:18:43;;;;;;;12.80;9.23;;;12.10;99.90;;;;;;5020345;28;20454;-76
2022/05/04 00:21:10;;;;;;;17.10;9.90;;;12.10;99.90;;;;;;5015680;28;20531;-76
2022/05/04 00:23:37;;;;;;;12.73;10.00;;;12.10;99.90;;;;;;5026227;28;20453;-76
2022/05/04 00:26:03;;;;;;;14.20;10.70;;;12.10;99.90;;;;;;5021235;28;20454;-76
2022/05/04 00:28:30;;;;;;;14.17;10.53;;;12.00;99.90;;;;;;5019608;28;20501;-76
2022/05/04 00:30:58;;;;;;;18.60;9.80;;;12.00;99.90;;;;;;5020459;28;20474;-76
2022/05/04 00:33:25;;;;;;;13.77;10.53;;;12.00;99.90;;;;;;5017963;28;20807;-76
2022/05/04 00:35:51;;;;;;;15.77;10.40;;;12.00;99.90;;;;;;5016066;28;20454;-77
2022/05/04 00:38:18;;;;;;;16.07;10.70;;;12.00;99.90;;;;;;5019780;28;20591;-77
2022/05/04 00:40:45;;;;;;;16.00;11.57;;;11.90;99.90;;;;;;5027653;28;20905;-76
2022/05/04 00:43:21;;;;;;;14.30;10.40;;;11.90;99.90;;;;;;5028092;28;20941;-76
2022/05/04 00:45:48;;;;;;;14.57;11.80;;;11.90;99.90;;;;;;5026072;28;20831;-76
2022/05/04 00:48:16;;;;;;;14.10;11.30;;;11.90;99.90;;;;;;5030141;28;20458;-76
2022/05/04 00:50:43;;;;;;;15.33;10.93;;;11.90;99.90;;;;;;5035302;28;20477;-76
2022/05/04 00:53:10;;;;;;;15.27;10.90;;;11.80;99.90;;;;;;5020892;28;20519;-76
2022/05/04 00:55:37;;;;;;;13.40;10.33;;;11.80;99.90;;;;;;5022017;28;20454;-76
2022/05/04 01:00:51;;;;;;;16.93;11.00;;;11.80;99.90;;;;;;5027496;28;20900;-76
2022/05/04 01:03:19;;;;;;;24.23;11.17;;;11.80;99.90;;;;;;5029607;28;20475;-76
2022/05/04 01:05:46;;;;;;;14.73;11.23;;;11.80;99.90;;;;;;5022365;28;20800;-76
2022/05/04 01:08:13;;;;;;;14.00;10.10;;;11.80;99.90;;;;;;5023764;28;20804;-76
2022/05/04 01:10:39;;;;;;;21.97;11.30;;;11.80;99.90;;;;;;5024750;28;21068;-76
2022/05/04 01:13:06;;;;;;;16.00;11.10;;;11.80;99.90;;;;;;5022612;28;20607;-76
2022/05/04 01:15:33;;;;;;;16.13;11.60;;;11.70;99.90;;;;;;5018717;28;20457;-76
2022/05/04 01:17:59;;;;;;;15.33;10.43;;;11.70;99.90;;;;;;5025213;28;20481;-76
2022/05/04 01:20:28;;;;;;;14.90;11.00;;;11.70;99.90;;;;;;5022552;28;20486;-77
2022/05/04 01:22:56;;;;;;;20.90;11.23;;;11.70;99.90;;;;;;5025112;28;20464;-76
2022/05/04 01:25:23;;;;;;;14.53;11.17;;;11.60;99.90;;;;;;5021527;28;20450;-76
2022/05/04 01:27:49;;;;;;;20.70;11.40;;;11.60;99.90;;;;;;5024719;28;20449;-76
2022/05/04 01:30:16;;;;;;;15.20;11.80;;;11.60;99.90;;;;;;5021528;28;20466;-76
2022/05/04 01:32:43;;;;;;;14.70;11.30;;;11.60;99.90;;;;;;5024040;28;20457;-76
2022/05/04 01:35:09;;;;;;;18.80;11.60;;;11.60;99.90;;;;;;5022922;28;20957;-76
2022/05/04 01:37:36;;;;;;;17.00;11.73;;;11.60;99.90;;;;;;5017743;28;20875;-76
2022/05/04 01:40:05;;;;;;;15.80;12.33;;;11.60;99.90;;;;;;5026490;28;20477;-76
2022/05/04 01:42:32;;;;;;;14.60;10.63;;;11.60;99.90;;;;;;5024366;28;20953;-76
2022/05/04 01:44:58;;;;;;;15.30;11.83;;;11.60;99.90;;;;;;5025652;28;20450;-76
2022/05/04 01:47:25;;;;;;;18.60;12.17;;;11.50;99.90;;;;;;5025632;28;20454;-76
2022/05/04 01:49:51;;;;;;;19.53;12.83;;;11.50;99.90;;;;;;5021138;28;20481;-76
2022/05/04 01:52:18;;;;;;;17.40;12.17;;;11.50;99.90;;;;;;5017822;28;20458;-76
2022/05/04 01:54:45;;;;;;;16.70;12.57;;;11.50;99.90;;;;;;5029996;28;20963;-76
2022/05/04 01:57:13;;;;;;;18.23;12.80;;;11.40;99.90;;;;;;5016499;28;20965;-76
2022/05/04 01:59:40;;;;;;;14.33;12.00;;;11.40;99.90;;;;;;5024963;28;20557;-76
2022/05/04 02:02:07;;;;;;;15.97;12.17;;;11.40;99.90;;;;;;5027607;28;20505;-76
2022/05/04 02:04:34;;;;;;;21.50;12.67;;;11.40;99.90;;;;;;5036587;28;20502;-76
2022/05/04 02:07:01;;;;;;;16.13;11.90;;;11.30;99.90;;;;;;5018123;28;20454;-76
2022/05/04 02:09:29;;;;;;;21.23;12.07;;;11.30;99.90;;;;;;5020988;28;20453;-76
2022/05/04 02:11:56;;;;;;;19.27;12.47;;;11.30;99.90;;;;;;5017870;28;20999;-76
2022/05/04 02:14:25;;;;;;;21.73;14.00;;;11.20;99.90;;;;;;5028742;28;20445;-76
2022/05/04 02:16:52;;;;;;;19.70;12.60;;;11.20;99.90;;;;;;5028151;28;20489;-76
2022/05/04 02:19:18;;;;;;;22.00;11.87;;;11.20;99.90;;;;;;5019210;28;20446;-76
2022/05/04 02:21:45;;;;;;;18.87;12.90;;;11.20;99.90;;;;;;5023510;28;20477;-76
2022/05/04 02:24:11;;;;;;;22.47;13.00;;;11.20;99.90;;;;;;5029015;28;20965;-76
2022/05/04 02:26:38;;;;;;;19.73;13.00;;;11.20;99.90;;;;;;5027957;28;20449;-76
2022/05/04 02:29:05;;;;;;;19.87;12.97;;;11.10;99.90;;;;;;5028597;28;20469;-76
2022/05/04 02:31:33;;;;;;;18.57;12.80;;;11.10;99.90;;;;;;5022588;28;20474;-76
2022/05/04 02:34:00;;;;;;;19.70;12.73;;;11.10;99.90;;;;;;5018817;28;20462;-76
2022/05/04 02:39:11;;;;;;;19.00;13.00;;;11.00;99.90;;;;;;5020410;28;20436;-76
2022/05/04 02:41:37;;;;;;;18.90;12.20;;;11.00;99.90;;;;;;5021438;28;20478;-76
2022/05/04 02:44:04;;;;;;;19.13;13.20;;;11.00;99.90;;;;;;5021574;28;20500;-76
2022/05/04 02:46:32;;;;;;;22.57;13.20;;;10.90;99.90;;;;;;5029662;28;20473;-77
2022/05/04 02:48:59;;;;;;;17.57;13.07;;;10.90;99.90;;;;;;5023396;28;20449;-76
2022/05/04 02:51:26;;;;;;;20.07;13.40;;;11.00;99.90;;;;;;5027834;28;20524;-77
2022/05/04 02:53:53;;;;;;;20.47;13.50;;;11.00;99.90;;;;;;5019105;28;20806;-76
2022/05/04 02:56:20;;;;;;;23.00;14.50;;;10.90;99.90;;;;;;5018758;28;20545;-76
2022/05/04 02:58:49;;;;;;;20.20;13.73;;;10.90;99.90;;;;;;5020070;28;20457;-76
2022/05/04 03:04:06;;;;;;;21.97;13.27;;;10.90;99.90;;;;;;5023538;28;20463;-76
2022/05/04 03:06:33;;;;;;;26.03;13.10;;;10.90;99.90;;;;;;5020794;28;20458;-76
2022/05/04 03:08:59;;;;;;;21.97;13.80;;;10.90;99.90;;;;;;5020254;28;20453;-76
2022/05/04 03:14:11;;;;;;;19.20;13.47;;;10.90;99.90;;;;;;5018229;28;20504;-76
2022/05/04 03:16:39;;;;;;;22.33;14.43;;;10.90;99.90;;;;;;5028319;28;20466;-76
2022/05/04 03:19:07;;;;;;;19.93;12.83;;;10.90;99.90;;;;;;5026952;28;20469;-76
2022/05/04 03:21:34;;;;;;;25.93;12.80;;;10.90;99.90;;;;;;5017570;28;20485;-76
2022/05/04 03:24:01;;;;;;;21.23;13.13;;;10.90;99.90;;;;;;5020525;28;20459;-76
2022/05/04 03:26:29;;;;;;;21.67;13.00;;;10.90;99.90;;;;;;5016335;28;20450;-76
2022/05/04 03:28:56;;;;;;;23.50;13.10;;;10.90;99.90;;;;;;5016474;28;20459;-76
2022/05/04 03:31:23;;;;;;;18.67;12.80;;;10.90;99.90;;;;;;5020240;28;20474;-76
2022/05/04 03:33:50;;;;;;;21.33;13.33;;;10.90;99.90;;;;;;5027247;28;20457;-77
2022/05/04 03:36:18;;;;;;;24.50;13.90;;;10.80;99.90;;;;;;5023569;28;20457;-76
2022/05/04 03:38:45;;;;;;;23.60;13.20;;;10.80;99.90;;;;;;5029116;28;20515;-76
2022/05/04 03:41:11;;;;;;;18.70;13.50;;;10.80;99.90;;;;;;5015362;28;20485;-77
2022/05/04 03:43:38;;;;;;;19.30;13.07;;;10.80;99.90;;;;;;5012797;28;20516;-77
2022/05/04 03:46:15;;;;;;;17.87;11.60;;;10.80;99.90;;;;;;5022028;28;20512;-78
2022/05/04 03:48:42;;;;;;;19.70;12.97;;;10.70;99.90;;;;;;5016879;28;20461;-77
2022/05/04 03:51:10;;;;;;;23.03;12.50;;;10.70;99.90;;;;;;5018047;28;20477;-76
2022/05/04 03:53:38;;;;;;;22.90;15.13;;;10.70;99.90;;;;;;5027214;28;20794;-76
2022/05/04 03:56:05;;;;;;;21.17;13.43;;;10.70;99.90;;;;;;5023768;28;20502;-77
2022/05/04 03:58:32;;;;;;;19.90;12.87;;;10.70;99.90;;;;;;5017306;28;21144;-76
2022/05/04 04:00:59;;;;;;;21.07;13.60;;;10.60;99.90;;;;;;5021158;28;21004;-75
2022/05/04 04:03:26;;;;;;;24.63;12.93;;;10.60;99.90;;;;;;5020162;28;20463;-75
2022/05/04 04:05:52;;;;;;;22.00;13.83;;;10.60;99.90;;;;;;5017304;28;20453;-75
2022/05/04 04:08:19;;;;;;;26.07;14.43;;;10.60;99.90;;;;;;5024644;28;20947;-75
2022/05/04 04:10:47;;;;;;;21.77;13.70;;;10.60;99.90;;;;;;5013450;28;20852;-75
2022/05/04 04:13:15;;;;;;;22.67;14.20;;;10.60;99.90;;;;;;5015992;28;20674;-75
2022/05/04 04:15:41;;;;;;;24.10;13.73;;;10.60;99.90;;;;;;5015198;28;20464;-75
2022/05/04 04:18:08;;;;;;;22.63;13.93;;;10.70;99.90;;;;;;5022398;28;20458;-75
2022/05/04 04:23:19;;;;;;;24.40;14.47;;;10.80;99.90;;;;;;5023377;28;20437;-75
2022/05/04 04:25:48;;;;;;;22.50;14.53;;;10.60;99.90;;;;;;5016351;28;20454;-75
2022/05/04 04:28:15;;;;;;;24.57;14.27;;;10.60;99.90;;;;;;5025776;28;20455;-75
2022/05/04 04:30:41;;;;;;;23.57;14.33;;;10.60;99.90;;;;;;5022540;28;20473;-76
2022/05/04 04:33:08;;;;;;;25.73;14.00;;;10.60;99.90;;;;;;5026091;28;20516;-75
2022/05/04 04:35:36;;;;;;;23.07;14.20;;;10.70;99.90;;;;;;5018240;28;20541;-75
2022/05/04 04:38:03;;;;;;;20.87;12.73;;;10.60;99.90;;;;;;5014982;28;20461;-75
2022/05/04 04:40:30;;;;;;;23.23;13.97;;;10.70;99.90;;;;;;5017359;28;20580;-75
2022/05/04 04:43:00;;;;;;;27.27;14.17;;;10.70;99.90;;;;;;5015404;28;20456;-75
2022/05/04 04:45:27;;;;;;;34.27;14.80;;;10.80;99.90;;;;;;5025783;28;20969;-75
2022/05/04 04:47:54;;;;;;;24.00;14.00;;;10.70;99.90;;;;;;5016347;28;20880;-75
2022/05/04 04:50:20;;;;;;;19.73;13.10;;;10.70;99.90;;;;;;5015334;28;20536;-75
2022/05/04 04:52:47;;;;;;;25.80;14.30;;;10.70;99.90;;;;;;5015894;28;20813;-75
2022/05/04 04:55:14;;;;;;;22.43;13.50;;;10.70;99.90;;;;;;5016977;28;20538;-75
2022/05/04 04:57:40;;;;;;;20.50;13.67;;;10.70;99.90;;;;;;5017445;28;20447;-75
2022/05/04 05:00:09;;;;;;;22.80;14.07;;;10.80;99.90;;;;;;5014119;28;20481;-75
2022/05/04 05:02:36;;;;;;;19.43;13.47;;;10.80;99.90;;;;;;5015443;28;20920;-75
2022/05/04 05:05:03;;;;;;;25.73;14.57;;;10.80;99.90;;;;;;5015995;28;20945;-75
2022/05/04 05:07:29;;;;;;;23.93;13.83;;;10.80;99.90;;;;;;5020398;28;20453;-75
2022/05/04 05:09:56;;;;;;;22.30;13.60;;;10.80;99.90;;;;;;5021014;28;20804;-75
2022/05/04 05:12:23;;;;;;;23.77;12.50;;;10.80;99.90;;;;;;5021865;28;20455;-75
2022/05/04 05:17:36;;;;;;;29.37;13.50;;;10.90;99.90;;;;;;5017855;28;20444;-75
2022/05/04 05:20:04;;;;;;;23.87;12.87;;;11.00;99.90;;;;;;5020005;28;20594;-75
2022/05/04 05:22:31;;;;;;;20.63;13.37;;;11.00;99.90;;;;;;5018544;28;20520;-75
2022/05/04 05:24:58;;;;;;;23.47;12.23;;;11.10;99.90;;;;;;5013682;28;20531;-75
2022/05/04 05:27:25;;;;;;;18.40;12.87;;;11.10;99.90;;;;;;5026625;28;20452;-77
2022/05/04 05:29:51;;;;;;;23.13;13.00;;;11.20;99.90;;;;;;5026171;28;20462;-77
2022/05/04 05:32:18;;;;;;;16.83;11.83;;;11.20;99.90;;;;;;5027073;28;20520;-77
2022/05/04 05:34:46;;;;;;;20.23;11.90;;;11.30;99.90;;;;;;5020863;28;20462;-77
2022/05/04 05:37:13;;;;;;;16.67;11.00;;;11.30;99.90;;;;;;5018510;28;20882;-77
2022/05/04 05:39:40;;;;;;;16.90;11.50;;;11.40;99.90;;;;;;5026877;28;20457;-77
2022/05/04 05:42:07;;;;;;;22.60;11.70;;;11.40;99.90;;;;;;5024966;28;20496;-77
2022/05/04 05:44:34;;;;;;;20.40;11.93;;;11.50;99.90;;;;;;5023845;28;20458;-77
2022/05/04 05:47:01;;;;;;;16.43;11.40;;;11.50;99.90;;;;;;5026019;28;20457;-77
2022/05/04 05:49:28;;;;;;;20.90;11.50;;;11.50;99.90;;;;;;5031454;28;20500;-77
2022/05/04 05:51:56;;;;;;;20.07;11.73;;;11.50;99.90;;;;;;5021481;28;20520;-77
2022/05/04 05:54:23;;;;;;;17.77;12.00;;;11.50;99.90;;;;;;5026301;28;20458;-77
2022/05/04 05:56:51;;;;;;;22.10;11.97;;;11.50;99.90;;;;;;5032623;28;20461;-77
2022/05/04 05:59:17;;;;;;;19.30;12.23;;;11.50;99.90;;;;;;5033242;28;20483;-77
2022/05/04 06:01:44;;;;;;;24.77;12.93;;;11.50;99.90;;;;;;5031465;28;20489;-77
2022/05/04 06:04:11;;;;;;;17.50;11.17;;;11.60;99.90;;;;;;5033084;28;20515;-77
2022/05/04 06:06:38;;;;;;;19.63;12.07;;;11.60;99.90;;;;;;5039131;28;20449;-77
2022/05/04 06:09:06;;;;;;;33.43;12.90;;;11.60;99.90;;;;;;5037987;28;21016;-77
2022/05/04 06:11:34;;;;;;;20.27;12.13;;;11.80;99.90;;;;;;5021426;28;20482;-77
2022/05/04 06:14:01;;;;;;;17.43;10.60;;;12.10;99.90;;;;;;5029290;28;20457;-77
2022/05/04 06:16:28;;;;;;;17.70;10.43;;;12.30;99.90;;;;;;5028757;28;20457;-77
2022/05/04 06:18:54;;;;;;;19.67;11.03;;;12.50;99.90;;;;;;5029326;28;20487;-77
2022/05/04 06:21:21;;;;;;;23.57;12.40;;;12.60;99.90;;;;;;5031939;28;20571;-77
2022/05/04 06:23:48;;;;;;;17.30;11.03;;;12.60;99.90;;;;;;5022577;28;20459;-77
2022/05/04 06:26:20;;;;;;;25.47;11.20;;;12.60;99.90;;;;;;5021380;28;21199;-77
2022/05/04 06:28:46;;;;;;;16.70;11.20;;;12.60;99.90;;;;;;5027175;28;20449;-77
2022/05/04 06:34:11;;;;;;;18.73;11.40;;;12.60;99.90;;;;;;5021138;28;20465;-77
2022/05/04 06:36:40;;;;;;;37.47;11.80;;;12.50;99.90;;;;;;5035892;28;20464;-77
2022/05/04 06:39:07;;;;;;;17.40;11.40;;;12.60;99.90;;;;;;5031348;28;20507;-77
2022/05/04 06:41:37;;;;;;;19.60;12.13;;;12.60;99.90;;;;;;5021512;28;20544;-77
2022/05/04 06:44:04;;;;;;;15.53;10.93;;;12.90;99.90;;;;;;5022965;28;20458;-77
2022/05/04 06:46:31;;;;;;;14.50;10.00;;;13.10;99.90;;;;;;5020717;28;20454;-78
2022/05/04 06:48:58;;;;;;;20.40;10.77;;;13.40;99.90;;;;;;5028676;28;20454;-78
2022/05/04 06:51:25;;;;;;;19.43;11.80;;;13.80;99.90;;;;;;5021217;28;20467;-76
2022/05/04 06:53:52;;;;;;;17.13;10.40;;;14.20;99.90;;;;;;5018658;28;20450;-77
2022/05/04 06:56:19;;;;;;;15.83;11.00;;;14.20;99.90;;;;;;5028340;28;20466;-76
2022/05/04 06:58:47;;;;;;;16.77;10.67;;;14.20;99.90;;;;;;5026751;28;20468;-76
2022/05/04 07:01:14;;;;;;;14.83;11.33;;;14.20;99.90;;;;;;5024065;28;20492;-77
2022/05/04 07:03:41;;;;;;;17.40;11.40;;;14.00;99.90;;;;;;5032112;28;20975;-77
2022/05/04 07:06:08;;;;;;;18.73;11.40;;;14.00;99.90;;;;;;5026671;28;20465;-78
2022/05/04 07:08:35;;;;;;;17.07;10.93;;;13.80;99.90;;;;;;5027532;28;20535;-78
2022/05/04 07:11:01;;;;;;;17.33;11.80;;;13.70;99.90;;;;;;5021297;28;20478;-77
2022/05/04 07:13:28;;;;;;;18.00;11.47;;;13.80;99.90;;;;;;5021887;28;20462;-77
2022/05/04 07:15:56;;;;;;;18.00;10.47;;;14.00;99.90;;;;;;5037417;28;20503;-77
2022/05/04 07:18:24;;;;;;;19.63;12.07;;;14.40;99.90;;;;;;5028258;28;20457;-77
2022/05/04 07:20:51;;;;;;;18.23;10.63;;;14.80;99.90;;;;;;5025486;28;20481;-77
2022/05/04 07:23:18;;;;;;;15.77;10.20;;;15.30;99.90;;;;;;5026708;28;20463;-77
2022/05/04 07:25:45;;;;;;;14.10;9.93;;;15.50;99.90;;;;;;5034553;28;20464;-76
2022/05/04 07:28:12;;;;;;;18.60;10.57;;;15.70;99.90;;;;;;5030176;28;20532;-77
2022/05/04 07:30:39;;;;;;;18.03;10.77;;;15.80;99.90;;;;;;5024245;28;20492;-78
2022/05/04 07:33:07;;;;;;;12.40;9.23;;;15.80;99.90;;;;;;5023054;28;20425;-77
2022/05/04 07:35:35;;;;;;;13.53;9.53;;;15.70;99.90;;;;;;5022602;28;20454;-77
2022/05/04 07:38:03;;;;;;;14.97;9.90;;;15.80;99.90;;;;;;5028434;28;20459;-77
2022/05/04 07:43:17;;;;;;;18.87;10.20;;;15.90;99.90;;;;;;5032328;28;20440;-77
2022/05/04 07:45:44;;;;;;;15.93;10.00;;;15.90;99.90;;;;;;5028161;28;20449;-77
2022/05/04 07:48:12;;;;;;;20.13;10.17;;;15.90;99.90;;;;;;5033582;28;20934;-77
2022/05/04 07:50:40;;;;;;;15.30;9.93;;;16.00;99.90;;;;;;5025565;28;21013;-77
2022/05/04 07:53:10;;;;;;;17.13;10.53;;;16.00;99.90;;;;;;5031251;28;20907;-77
2022/05/04 07:55:37;;;;;;;13.87;9.50;;;16.10;99.90;;;;;;5019774;28;20443;-77
2022/05/04 07:58:04;;;;;;;16.57;10.27;;;16.10;99.90;;;;;;5039059;28;20452;-78
2022/05/04 08:06:01;;;;;;;25.43;9.83;;;16.30;99.90;;;;;;5017222;28;20546;-77
2022/05/04 08:08:27;;;;;;;14.10;9.30;;;16.10;99.90;;;;;;5032219;28;20454;-77
2022/05/04 08:10:54;;;;;;;12.87;9.13;;;16.10;99.90;;;;;;5030187;28;20455;-78
2022/05/04 08:13:21;;;;;;;11.27;8.50;;;16.20;99.90;;;;;;5034081;28;21429;-77
2022/05/04 08:15:48;;;;;;;14.83;9.70;;;16.60;99.90;;;;;;5023527;28;20479;-78
2022/05/04 08:18:16;;;;;;;10.53;8.90;;;17.00;99.90;;;;;;5026348;28;20424;-77
2022/05/04 08:20:43;;;;;;;12.53;10.37;;;17.60;99.90;;;;;;5030137;28;20477;-81
2022/05/04 08:23:10;;;;;;;13.87;9.30;;;18.10;99.90;;;;;;5028128;28;21039;-77
2022/05/04 08:25:37;;;;;;;12.90;8.90;;;18.60;99.90;;;;;;5029361;28;20428;-80
2022/05/04 08:28:04;;;;;;;14.03;9.60;;;18.60;99.90;;;;;;5024034;28;20564;-83
2022/05/04 08:30:31;;;;;;;10.47;8.73;;;18.50;99.90;;;;;;5032797;28;20823;-80
2022/05/04 08:32:58;;;;;;;11.47;7.97;;;18.30;99.90;;;;;;5024204;28;20431;-80
2022/05/04 08:35:27;;;;;;;10.43;7.90;;;18.40;99.90;;;;;;5032745;28;20420;-80
2022/05/04 08:37:54;;;;;;;10.77;8.47;;;18.60;99.90;;;;;;5031686;28;20544;-80
2022/05/04 08:40:21;;;;;;;11.23;8.73;;;18.80;99.90;;;;;;5031686;28;20883;-81
2022/05/04 08:42:48;;;;;;;12.10;9.30;;;19.00;99.90;;;;;;5019751;28;20452;-80
2022/05/04 08:45:15;;;;;;;10.47;9.20;;;19.10;99.90;;;;;;5030803;28;20430;-80
2022/05/04 08:47:45;;;;;;;11.63;8.60;;;19.30;99.90;;;;;;5029178;28;20432;-81
2022/05/04 08:50:14;;;;;;;14.13;8.70;;;19.50;99.90;;;;;;5032518;28;20551;-80
2022/05/04 08:52:52;;;;;;;12.40;8.73;;;19.90;99.90;;;;;;5027931;28;20478;-80
2022/05/04 08:55:19;;;;;;;13.83;9.70;;;20.20;99.90;;;;;;5032360;28;20874;-80
2022/05/04 08:57:47;;;;;;;14.40;9.37;;;20.40;99.90;;;;;;5031098;28;20424;-80
2022/05/04 09:00:15;;;;;;;10.47;8.30;;;20.30;99.90;;;;;;5032482;28;20536;-80
2022/05/04 09:02:42;;;;;;;16.90;9.90;;;19.80;99.90;;;;;;5045042;28;20467;-80
2022/05/04 09:05:18;;;;;;;12.47;9.40;;;19.60;99.90;;;;;;5029240;28;20461;-80
2022/05/04 09:07:48;;;;;;;11.23;9.97;;;19.20;99.90;;;;;;5037187;28;20493;-82
2022/05/04 09:10:21;;;;;;;14.20;8.90;;;18.90;99.90;;;;;;5035872;28;20480;-80
2022/05/04 09:12:49;;;;;;;17.17;9.97;;;18.90;99.90;;;;;;5031052;28;20440;-79
2022/05/04 09:15:28;;;;;;;16.53;9.50;;;18.80;99.90;;;;;;5025636;28;20457;-79
2022/05/04 09:17:59;;;;;;;16.07;9.77;;;18.90;99.90;;;;;;5037444;28;20446;-80
2022/05/04 09:23:14;;;;;;;15.50;9.33;;;18.80;99.90;;;;;;5033790;28;20457;-82
2022/05/04 09:25:41;;;;;;;12.87;10.00;;;18.90;99.90;;;;;;5028838;28;20420;-76
2022/05/04 09:28:12;;;;;;;16.43;10.80;;;18.80;99.90;;;;;;5029779;28;20453;-77
2022/05/04 09:30:44;;;;;;;14.67;10.00;;;18.70;99.90;;;;;;5029717;28;20504;-77
2022/05/04 09:33:13;;;;;;;20.33;11.40;;;18.70;99.90;;;;;;5024759;28;20449;-77
2022/05/04 09:35:41;;;;;;;16.37;10.03;;;18.60;99.90;;;;;;5024412;28;20492;-76
2022/05/04 09:46:38;;;;;;;15.23;10.30;;;19.40;99.90;;;;;;5016254;28;20456;-77
2022/05/04 09:49:16;;;;;;;14.00;9.73;;;19.40;99.90;;;;;;5028300;28;20448;-76
2022/05/04 09:51:45;;;;;;;12.97;9.30;;;19.80;99.90;;;;;;5021912;28;20470;-76
2022/05/04 09:54:19;;;;;;;13.07;9.20;;;20.20;99.90;;;;;;5021647;28;20490;-80
2022/05/04 09:56:47;;;;;;;13.70;8.83;;;20.70;99.90;;;;;;5023728;28;20432;-81
2022/05/04 09:59:18;;;;;;;14.53;9.10;;;21.00;99.90;;;;;;5034364;28;20453;-80
2022/05/04 10:01:46;;;;;;;10.17;8.43;;;21.30;99.90;;;;;;5036271;28;20850;-80
2022/05/04 10:04:13;;;;;;;9.67;8.47;;;21.70;99.90;;;;;;5040633;28;20452;-80
2022/05/04 10:06:41;;;;;;;11.87;8.43;;;21.90;99.90;;;;;;5043212;28;20453;-79
2022/05/04 10:09:08;;;;;;;13.60;8.57;;;21.90;99.90;;;;;;5030796;28;20510;-80
2022/05/04 10:11:37;;;;;;;21.20;10.53;;;22.00;99.90;;;;;;5048851;28;20864;-80
2022/05/04 10:14:07;;;;;;;18.17;10.20;;;22.00;99.90;;;;;;5026112;28;20801;-76
2022/05/04 10:16:42;;;;;;;13.17;8.77;;;22.00;99.90;;;;;;5027294;28;20454;-76
2022/05/04 10:19:14;;;;;;;18.23;9.80;;;22.10;99.90;;;;;;5028659;28;20452;-76
2022/05/04 10:21:43;;;;;;;19.10;9.40;;;22.20;99.90;;;;;;5029051;28;20477;-77
2022/05/04 10:24:11;;;;;;;10.87;8.90;;;22.30;99.90;;;;;;5023543;28;20458;-77
2022/05/04 10:26:40;;;;;;;10.80;9.00;;;22.30;99.90;;;;;;5029729;28;20453;-76
2022/05/04 10:32:28;;;;;;;15.03;9.10;;;22.70;99.90;;;;;;5032001;28;20464;-77
2022/05/04 10:35:20;;;;;;;13.63;9.60;;;23.10;99.90;;;;;;5018060;28;20485;-76
2022/05/04 10:38:11;;;;;;;13.37;9.97;;;22.90;99.90;;;;;;5026887;28;20459;-76
2022/05/04 10:40:40;;;;;;;14.63;8.77;;;22.80;99.90;;;;;;5036512;28;20470;-76
2022/05/04 10:43:10;;;;;;;13.73;9.30;;;23.00;99.90;;;;;;5027193;28;20876;-76
2022/05/04 10:45:38;;;;;;;11.50;7.33;;;23.30;99.90;;;;;;5018171;28;20839;-76
2022/05/04 10:48:24;;;;;;;13.53;8.77;;;23.60;99.90;;;;;;5030986;28;20490;-76
2022/05/04 10:50:54;;;;;;;15.63;10.10;;;23.60;99.90;;;;;;5028151;28;20484;-75
2022/05/04 10:53:36;;;;;;;14.70;9.90;;;23.40;99.90;;;;;;5032375;28;20458;-76
2022/05/04 10:56:06;;;;;;;13.10;8.97;;;23.40;99.90;;;;;;5023077;28;20455;-74
2022/05/04 10:58:37;;;;;;;14.80;9.60;;;23.50;99.90;;;;;;5035629;28;20452;-75
2022/05/04 11:01:06;;;;;;;15.53;8.80;;;23.40;99.90;;;;;;5026142;28;21209;-75
2022/05/04 11:03:35;;;;;;;11.33;9.30;;;23.40;99.90;;;;;;5026571;28;20882;-77
2022/05/04 11:06:10;;;;;;;22.60;10.77;;;23.60;99.90;;;;;;5033009;28;20456;-77
2022/05/04 11:08:37;;;;;;;13.77;9.43;;;23.70;99.90;;;;;;5025074;28;20460;-77
2022/05/04 11:11:05;;;;;;;11.40;10.10;;;23.80;99.90;;;;;;5023475;28;20497;-76
2022/05/04 11:13:32;;;;;;;13.50;9.17;;;23.80;99.90;;;;;;5033821;28;20456;-77
2022/05/04 11:16:01;;;;;;;17.40;9.60;;;23.80;99.90;;;;;;5024655;28;20524;-76
2022/05/04 11:18:30;;;;;;;11.90;9.20;;;23.80;99.90;;;;;;5025423;28;20456;-77
2022/05/04 11:20:56;;;;;;;13.63;8.60;;;23.60;99.90;;;;;;5030729;28;20488;-77
2022/05/04 11:23:25;;;;;;;13.00;9.20;;;23.70;99.90;;;;;;5025023;28;20473;-77
2022/05/04 11:25:52;;;;;;;10.60;7.97;;;23.80;99.90;;;;;;5019850;28;20461;-76
2022/05/04 11:28:23;;;;;;;12.23;8.10;;;23.90;99.90;;;;;;5017374;28;20460;-80
2022/05/04 11:30:51;;;;;;;13.17;8.83;;;24.00;99.90;;;;;;5033431;28;20516;-80
2022/05/04 11:33:20;;;;;;;14.50;8.73;;;24.20;99.90;;;;;;5022795;28;20453;-77
2022/05/04 11:35:53;;;;;;;10.77;9.00;;;24.20;99.90;;;;;;5019857;28;20469;-76
2022/05/04 11:38:21;;;;;;;10.00;8.30;;;24.20;99.90;;;;;;5017046;28;20544;-77
2022/05/04 11:40:49;;;;;;;12.90;8.70;;;24.10;99.90;;;;;;5023750;28;20478;-77
2022/05/04 11:43:27;;;;;;;11.70;8.90;;;24.30;99.90;;;;;;5018557;28;20485;-76
2022/05/04 11:45:54;;;;;;;11.70;8.87;;;24.10;99.90;;;;;;5033383;28;20456;-80
2022/05/04 11:48:23;;;;;;;11.80;8.70;;;24.10;99.90;;;;;;5032173;28;20493;-80
2022/05/04 11:50:50;;;;;;;9.33;7.43;;;24.10;99.90;;;;;;5024529;28;20561;-76
2022/05/04 11:53:17;;;;;;;12.67;7.77;;;24.10;99.90;;;;;;5029898;28;20452;-76
2022/05/04 11:55:44;;;;;;;8.43;7.53;;;24.30;99.90;;;;;;5014219;28;20469;-76
2022/05/04 11:58:14;;;;;;;8.03;7.20;;;24.60;99.90;;;;;;5020804;28;21051;-76
2022/05/04 12:00:41;;;;;;;9.83;7.07;;;25.00;99.90;;;;;;5014317;28;20857;-76
2022/05/04 12:03:09;;;;;;;7.67;6.90;;;25.10;99.90;;;;;;5019059;28;20572;-76
2022/05/04 12:05:39;;;;;;;11.73;8.03;;;25.20;99.90;;;;;;5014558;28;20519;-77
2022/05/04 12:08:07;;;;;;;8.43;6.80;;;25.30;99.90;;;;;;5018552;28;20446;-77
2022/05/04 12:10:35;;;;;;;11.40;6.60;;;25.60;99.90;;;;;;5020557;28;20556;-77
2022/05/04 12:13:03;;;;;;;7.50;6.50;;;26.00;99.90;;;;;;5025020;28;20553;-77
2022/05/04 12:15:30;;;;;;;8.27;6.40;;;26.30;99.90;;;;;;5014182;28;20453;-77
2022/05/04 12:18:02;;;;;;;7.40;6.60;;;26.30;99.90;;;;;;5025240;28;20453;-77
2022/05/04 12:20:31;;;;;;;8.70;6.17;;;26.00;99.90;;;;;;5026569;28;20553;-76
2022/05/04 12:22:59;;;;;;;8.90;6.50;;;25.50;99.90;;;;;;5020146;28;20528;-77
2022/05/04 12:25:26;;;;;;;7.63;6.83;;;24.50;99.90;;;;;;5020836;28;20537;-77
2022/05/04 12:27:55;;;;;;;10.60;7.00;;;23.50;99.90;;;;;;5019243;28;20482;-76
2022/05/04 12:33:10;;;;;;;8.80;6.00;;;23.10;99.90;;;;;;5021522;28;20452;-77
2022/05/04 12:35:39;;;;;;;6.83;5.87;;;23.50;99.90;;;;;;5022550;28;20556;-77
2022/05/04 12:38:08;;;;;;;10.33;6.80;;;23.80;99.90;;;;;;5034484;28;20559;-76
2022/05/04 12:40:35;;;;;;;11.90;6.63;;;23.70;99.90;;;;;;5035495;28;20473;-77
2022/05/04 12:43:03;;;;;;;8.33;7.00;;;23.30;99.90;;;;;;5028834;28;20509;-77
2022/05/04 12:45:31;;;;;;;6.43;5.70;;;23.00;99.90;;;;;;5027111;28;20461;-76
2022/05/04 12:47:58;;;;;;;11.10;7.00;;;22.90;99.90;;;;;;5023941;28;21147;-77
2022/05/04 12:50:27;;;;;;;7.10;5.70;;;22.60;99.90;;;;;;5030072;28;20482;-76
2022/05/04 12:52:55;;;;;;;10.10;6.17;;;23.00;99.90;;;;;;5025597;28;20450;-77
2022/05/04 12:56:45;;;;;;;7.40;6.40;;;23.30;99.90;;;;;;5026873;28;20445;-77
2022/05/04 12:58:14;;;;;;;7.67;6.00;;;23.40;99.90;;;;;;5030999;28;20953;-78
2022/05/04 13:00:41;;;;;;;11.80;5.17;;;23.80;99.90;;;;;;5028598;28;20482;-77
2022/05/04 13:03:11;;;;;;;8.60;6.30;;;24.50;99.90;;;;;;5017998;28;20481;-77
2022/05/04 13:05:38;;;;;;;7.23;5.90;;;25.20;99.90;;;;;;5030614;28;20536;-77
2022/05/04 13:08:06;;;;;;;11.80;6.67;;;25.60;99.90;;;;;;5026438;28;20456;-77
2022/05/04 13:10:34;;;;;;;7.83;5.90;;;26.00;99.90;;;;;;5026863;28;20845;-76
2022/05/04 13:13:01;;;;;;;9.00;5.70;;;26.10;99.90;;;;;;5022985;28;20462;-77
2022/05/04 13:15:28;;;;;;;9.87;6.87;;;26.40;99.90;;;;;;5021943;28;20524;-76
2022/05/04 13:17:55;;;;;;;14.03;5.50;;;26.50;99.90;;;;;;5026527;28;20873;-76
2022/05/04 13:20:22;;;;;;;7.07;6.37;;;26.40;99.90;;;;;;5021645;28;20469;-76